Time;durP1;ratioP1;P1;durP2;ratioP2;P2;SDS_P1;SDS_P2;PMS_P1;PMS_P2;Temp;Humidity;BMP_temperature;BMP_pressure;BME280_temperature;BME280_humidity;BME280_pressure;Samples;Min_cycle;Max_cycle;Signal;HPM_P1;HPM_P2
2023/01/04 00:01:15;;;;;;;11.82;3.60;;;7.30;89.50;;;;;;5054236;28;20079;-46
2023/01/04 00:03:43;;;;;;;7.32;3.35;;;7.30;89.50;;;;;;5046976;28;20022;-44
2023/01/04 00:06:12;;;;;;;10.93;3.38;;;7.30;89.50;;;;;;5034928;28;20104;-44
2023/01/04 00:08:40;;;;;;;9.93;3.38;;;7.30;89.50;;;;;;5054130;28;20324;-48
2023/01/04 00:11:11;;;;;;;15.27;3.58;;;7.30;89.60;;;;;;5039975;28;20026;-45
2023/01/04 00:13:38;;;;;;;16.27;4.95;;;7.30;89.60;;;;;;5033592;28;20049;-47
2023/01/04 00:16:10;;;;;;;7.93;2.92;;;7.30;89.50;;;;;;5034340;28;20041;-47
2023/01/04 00:18:38;;;;;;;6.22;3.08;;;7.30;89.60;;;;;;5053712;28;20033;-45
2023/01/04 00:21:22;;;;;;;16.35;3.60;;;7.30;89.50;;;;;;5053680;28;20029;-45
2023/01/04 00:23:49;;;;;;;6.70;2.95;;;7.40;89.30;;;;;;5012870;28;20161;-47
2023/01/04 00:26:22;;;;;;;8.73;3.38;;;7.30;89.30;;;;;;5024160;28;20021;-44
2023/01/04 00:29:03;;;;;;;7.53;3.50;;;7.30;89.30;;;;;;5044308;28;20029;-47
2023/01/04 00:31:29;;;;;;;6.63;2.78;;;7.30;89.40;;;;;;5022183;28;20046;-45
2023/01/04 00:34:01;;;;;;;10.15;3.22;;;7.30;89.40;;;;;;5012600;28;20040;-47
2023/01/04 00:36:29;;;;;;;8.80;3.03;;;7.20;89.30;;;;;;5018758;28;20384;-45
2023/01/04 00:39:13;;;;;;;9.55;3.55;;;7.30;89.10;;;;;;5021396;28;20711;-50
2023/01/04 00:42:06;;;;;;;8.77;2.70;;;7.20;89.10;;;;;;5032145;28;20036;-44
2023/01/04 00:44:34;;;;;;;5.78;2.72;;;7.30;89.20;;;;;;5032327;28;20128;-47
2023/01/04 00:47:02;;;;;;;6.40;3.22;;;7.30;89.00;;;;;;5032640;28;20040;-44
2023/01/04 00:49:30;;;;;;;9.77;3.53;;;7.40;89.00;;;;;;5032818;28;20041;-44
2023/01/04 00:51:57;;;;;;;8.23;2.75;;;7.40;88.80;;;;;;5028930;28;20029;-46
2023/01/04 00:54:24;;;;;;;9.85;3.17;;;7.40;88.60;;;;;;5030195;28;20359;-48
2023/01/04 00:56:51;;;;;;;6.80;2.75;;;7.40;88.60;;;;;;5044154;28;20417;-47
2023/01/04 00:59:20;;;;;;;8.95;3.85;;;7.40;88.50;;;;;;5033036;28;20037;-46
2023/01/04 01:01:47;;;;;;;8.02;3.05;;;7.40;88.70;;;;;;5032844;28;20030;-45
2023/01/04 01:04:17;;;;;;;11.77;3.50;;;7.40;88.70;;;;;;5027575;28;20021;-46
2023/01/04 01:06:44;;;;;;;7.47;3.28;;;7.40;88.80;;;;;;5030781;28;20084;-51
2023/01/04 01:09:11;;;;;;;7.38;3.40;;;7.40;88.60;;;;;;5031145;28;20029;-47
2023/01/04 01:11:39;;;;;;;8.02;3.10;;;7.50;88.50;;;;;;5024608;28;20029;-47
2023/01/04 01:14:08;;;;;;;7.13;2.92;;;7.50;88.50;;;;;;5032770;28;20030;-47
2023/01/04 01:16:35;;;;;;;5.05;3.00;;;7.50;88.40;;;;;;5040546;28;20050;-49
2023/01/04 01:19:01;;;;;;;8.13;2.92;;;7.50;88.40;;;;;;5051806;28;20458;-50
2023/01/04 01:21:28;;;;;;;5.72;2.75;;;7.50;88.40;;;;;;5052821;28;20115;-47
2023/01/04 01:23:55;;;;;;;11.38;4.65;;;7.50;88.50;;;;;;5052559;28;20033;-47
2023/01/04 01:26:24;;;;;;;7.65;2.88;;;7.60;88.10;;;;;;5033988;28;20021;-46
2023/01/04 01:28:51;;;;;;;6.70;2.65;;;7.60;88.20;;;;;;5014154;28;20030;-46
2023/01/04 01:31:24;;;;;;;8.25;4.50;;;7.60;88.10;;;;;;5026516;28;20025;-45
2023/01/04 01:33:53;;;;;;;10.77;2.65;;;7.60;88.10;;;;;;5031583;28;20026;-45
2023/01/04 01:36:20;;;;;;;14.05;4.07;;;7.60;88.30;;;;;;5031694;28;20121;-46
2023/01/04 01:38:48;;;;;;;5.25;2.63;;;7.60;88.20;;;;;;5028691;28;20038;-46
2023/01/04 01:41:34;;;;;;;8.73;3.05;;;7.60;88.20;;;;;;5027142;28;20029;-48
2023/01/04 01:44:14;;;;;;;7.82;3.05;;;7.60;88.20;;;;;;5031536;28;20026;-49
2023/01/04 01:46:58;;;;;;;6.13;2.42;;;7.60;88.30;;;;;;5025051;28;20033;-48
2023/01/04 01:49:37;;;;;;;11.32;3.78;;;7.60;88.50;;;;;;5012662;28;20026;-48
2023/01/04 01:52:06;;;;;;;5.72;2.30;;;7.60;88.80;;;;;;5020751;28;20025;-45
2023/01/04 01:54:37;;;;;;;5.90;3.03;;;7.60;88.90;;;;;;5030141;28;20163;-46
2023/01/04 01:57:07;;;;;;;5.25;3.00;;;7.50;89.30;;;;;;5032555;28;20431;-43
2023/01/04 01:59:36;;;;;;;7.90;2.72;;;7.50;89.60;;;;;;5043679;28;20036;-43
2023/01/04 02:02:03;;;;;;;6.35;2.90;;;7.40;89.80;;;;;;5052291;28;20569;-46
2023/01/04 02:04:30;;;;;;;7.75;3.10;;;7.50;90.10;;;;;;5052310;28;20033;-45
2023/01/04 02:06:59;;;;;;;8.25;3.38;;;7.40;90.10;;;;;;5031119;28;20054;-46
2023/01/04 02:09:25;;;;;;;7.63;3.40;;;7.50;90.20;;;;;;5034297;28;20120;-51
2023/01/04 02:11:52;;;;;;;9.50;4.00;;;7.40;90.40;;;;;;5035286;28;20026;-55
2023/01/04 02:14:28;;;;;;;6.07;3.00;;;7.40;90.70;;;;;;5035063;28;20017;-57
2023/01/04 02:17:24;;;;;;;8.60;3.75;;;7.40;90.90;;;;;;5016558;28;20044;-52
2023/01/04 02:20:18;;;;;;;9.25;3.95;;;7.40;91.20;;;;;;5017146;28;20034;-61
2023/01/04 02:23:19;;;;;;;6.15;3.80;;;7.30;91.50;;;;;;5015062;28;20181;-59
2023/01/04 02:26:19;;;;;;;12.75;4.03;;;7.30;91.90;;;;;;5026742;28;20022;-53
2023/01/04 02:29:06;;;;;;;5.00;3.10;;;7.30;92.00;;;;;;5030371;28;20051;-54
2023/01/04 02:31:52;;;;;;;9.48;4.85;;;7.30;92.10;;;;;;5027054;28;20028;-54
2023/01/04 02:34:39;;;;;;;5.78;3.40;;;7.30;92.20;;;;;;5038174;28;20033;-59
2023/01/04 02:37:25;;;;;;;6.00;3.50;;;7.30;92.40;;;;;;5032644;28;20048;-61
2023/01/04 02:40:17;;;;;;;8.85;3.75;;;7.30;92.40;;;;;;5046106;28;20116;-62
2023/01/04 02:45:50;;;;;;;;;;;7.40;92.60;;;;;;5032500;28;20562;-63
2023/01/04 02:51:02;;;;;;;11.20;4.30;;;7.40;92.70;;;;;;5018215;28;20108;-63
2023/01/04 02:53:36;;;;;;;7.78;4.45;;;7.40;92.90;;;;;;5034473;28;20521;-63
2023/01/04 02:56:02;;;;;;;8.85;4.35;;;7.40;93.00;;;;;;5033789;28;20083;-62
2023/01/04 02:59:05;;;;;;;8.80;4.70;;;7.50;93.10;;;;;;5032938;28;20025;-62
2023/01/04 03:07:53;;;;;;;7.25;4.30;;;7.50;93.50;;;;;;5033568;28;20041;-62
2023/01/04 03:10:40;;;;;;;9.68;4.97;;;7.50;93.60;;;;;;5033861;28;20041;-62
2023/01/04 03:13:36;;;;;;;6.30;4.82;;;7.50;93.60;;;;;;5014246;28;20539;-63
2023/01/04 03:16:15;;;;;;;8.05;5.40;;;7.50;93.70;;;;;;5020787;28;20034;-63
2023/01/04 03:18:48;;;;;;;7.85;5.65;;;7.50;93.80;;;;;;5016145;28;20029;-62
2023/01/04 03:21:17;;;;;;;8.25;5.43;;;7.60;93.90;;;;;;5015348;28;20244;-64
2023/01/04 03:35:50;;;;;;;8.40;5.70;;;7.50;94.30;;;;;;5054196;28;20409;-62
2023/01/04 03:50:54;;;;;;;7.90;5.43;;;7.70;94.60;;;;;;5030022;28;20113;-65
2023/01/04 03:53:21;;;;;;;7.22;5.15;;;7.70;94.70;;;;;;5034663;28;20029;-65
2023/01/04 03:55:50;;;;;;;7.18;4.88;;;7.70;94.80;;;;;;5048147;28;20074;-64
2023/01/04 03:58:21;;;;;;;11.07;5.65;;;7.80;94.80;;;;;;5029334;28;20025;-65
2023/01/04 04:00:48;;;;;;;7.72;4.93;;;7.80;94.80;;;;;;5035378;28;20428;-64
2023/01/04 04:03:15;;;;;;;6.13;4.65;;;7.80;94.80;;;;;;5027883;28;20351;-65
2023/01/04 04:08:28;;;;;;;6.95;4.78;;;7.90;94.90;;;;;;5034170;28;20044;-65
2023/01/04 04:11:28;;;;;;;4.70;3.60;;;7.90;94.90;;;;;;5032922;28;20465;-65
2023/01/04 04:13:46;;;;;;;5.55;3.70;;;7.90;94.90;;;;;;5032745;28;20045;-64
2023/01/04 04:16:16;;;;;;;6.63;3.70;;;7.90;94.90;;;;;;5032894;28;20034;-65
2023/01/04 04:18:42;;;;;;;5.68;3.80;;;7.90;94.90;;;;;;5037938;28;20400;-65
2023/01/04 04:21:09;;;;;;;5.75;3.40;;;7.90;94.90;;;;;;5053766;28;20370;-65
2023/01/04 04:23:36;;;;;;;5.40;3.00;;;7.90;95.00;;;;;;5032769;28;20029;-65
2023/01/04 04:26:02;;;;;;;4.32;3.17;;;7.90;94.90;;;;;;5013866;28;20422;-65
2023/01/04 04:28:30;;;;;;;4.07;2.72;;;8.00;95.00;;;;;;5029611;28;20030;-65
2023/01/04 04:30:57;;;;;;;3.58;2.75;;;8.00;95.00;;;;;;5048340;28;20033;-65
2023/01/04 04:33:22;;;;;;;3.40;2.47;;;8.10;95.00;;;;;;5053737;28;20044;-65
2023/01/04 04:35:53;;;;;;;4.40;2.92;;;8.10;95.00;;;;;;5036454;28;20033;-65
2023/01/04 04:38:20;;;;;;;3.92;2.70;;;8.20;95.00;;;;;;5017231;28;20022;-65
2023/01/04 04:43:32;;;;;;;4.68;2.78;;;8.20;95.00;;;;;;5027545;28;20256;-64
2023/01/04 04:45:59;;;;;;;3.58;2.60;;;8.20;95.00;;;;;;5032997;28;20021;-63
2023/01/04 04:48:27;;;;;;;3.90;2.60;;;8.20;95.00;;;;;;5033139;28;20431;-65
2023/01/04 04:50:52;;;;;;;4.68;2.72;;;8.20;95.00;;;;;;5033124;28;20105;-65
2023/01/04 04:53:20;;;;;;;4.20;2.67;;;8.20;95.00;;;;;;5031129;28;20105;-65
2023/01/04 04:55:45;;;;;;;3.58;2.03;;;8.20;95.00;;;;;;5029404;28;20051;-62
2023/01/04 04:58:11;;;;;;;3.88;2.30;;;8.20;95.10;;;;;;5031600;28;20033;-60
2023/01/04 05:00:40;;;;;;;4.57;1.98;;;8.20;95.10;;;;;;5014386;28;20485;-61
2023/01/04 05:03:06;;;;;;;3.22;2.10;;;8.30;95.10;;;;;;5028831;28;20033;-64
2023/01/04 05:05:33;;;;;;;4.93;2.03;;;8.30;95.10;;;;;;5027040;28;20111;-63
2023/01/04 05:08:00;;;;;;;3.97;2.63;;;8.30;95.10;;;;;;5021367;28;20507;-62
2023/01/04 05:10:29;;;;;;;2.63;1.63;;;8.30;95.10;;;;;;5024370;28;20122;-61
2023/01/04 05:13:01;;;;;;;2.95;1.92;;;8.40;95.20;;;;;;5025851;28;20123;-62
2023/01/04 05:15:47;;;;;;;3.88;1.98;;;8.40;95.20;;;;;;5040004;28;20067;-63
2023/01/04 05:18:16;;;;;;;3.05;2.00;;;8.40;95.20;;;;;;5027789;28;20025;-62
2023/01/04 05:20:45;;;;;;;3.67;2.30;;;8.40;95.20;;;;;;5024260;28;20139;-60
2023/01/04 05:23:17;;;;;;;3.33;1.88;;;8.50;95.30;;;;;;5022896;28;20022;-58
2023/01/04 05:25:42;;;;;;;2.88;1.75;;;8.50;95.30;;;;;;5021205;28;20017;-56
2023/01/04 05:28:10;;;;;;;3.33;1.80;;;8.50;95.30;;;;;;5023242;28;20029;-52
2023/01/04 05:30:50;;;;;;;1.90;1.20;;;8.60;95.30;;;;;;5021400;28;20036;-54
2023/01/04 05:33:23;;;;;;;3.05;1.58;;;8.60;95.40;;;;;;5023019;28;20026;-62
2023/01/04 05:35:52;;;;;;;3.20;1.70;;;8.70;95.40;;;;;;5021467;28;20029;-65
2023/01/04 05:38:22;;;;;;;3.60;1.30;;;8.70;95.40;;;;;;5021911;28;20628;-65
2023/01/04 05:40:50;;;;;;;2.70;1.60;;;8.80;95.40;;;;;;5032413;28;20029;-65
2023/01/04 05:43:19;;;;;;;2.58;1.52;;;8.90;95.60;;;;;;5028986;28;20044;-64
2023/01/04 05:45:54;;;;;;;2.75;1.58;;;8.90;95.50;;;;;;5025755;28;20488;-60
2023/01/04 05:48:23;;;;;;;5.05;1.73;;;8.90;95.60;;;;;;5017842;28;20037;-61
2023/01/04 05:50:51;;;;;;;3.23;1.37;;;8.90;95.60;;;;;;5017943;28;20037;-65
2023/01/04 05:53:18;;;;;;;2.35;1.30;;;9.00;95.60;;;;;;5018271;28;20033;-62
2023/01/04 05:55:49;;;;;;;2.63;1.40;;;9.00;95.60;;;;;;5024410;28;20034;-64
2023/01/04 05:58:16;;;;;;;2.40;1.48;;;9.00;95.70;;;;;;5025067;28;20423;-65
2023/01/04 06:00:45;;;;;;;3.58;2.00;;;9.10;95.70;;;;;;5033602;28;20030;-64
2023/01/04 06:03:12;;;;;;;2.95;1.38;;;9.10;95.70;;;;;;5025167;28;20394;-63
2023/01/04 06:05:41;;;;;;;3.30;1.55;;;9.10;95.70;;;;;;5029190;28;20129;-66
2023/01/04 06:08:08;;;;;;;2.28;1.15;;;9.20;95.70;;;;;;5019036;28;20061;-65
2023/01/04 06:10:35;;;;;;;2.42;1.25;;;9.20;95.80;;;;;;5024185;28;20033;-64
2023/01/04 06:13:01;;;;;;;2.20;1.20;;;9.30;95.80;;;;;;5029538;28;20113;-62
2023/01/04 06:15:27;;;;;;;3.33;1.38;;;9.20;95.80;;;;;;5022091;28;20115;-63
2023/01/04 06:17:57;;;;;;;2.80;1.50;;;9.30;95.70;;;;;;5031971;28;20029;-63
2023/01/04 06:20:24;;;;;;;2.60;1.80;;;9.30;95.80;;;;;;5026432;28;20017;-66
2023/01/04 06:22:51;;;;;;;2.90;1.70;;;9.40;95.80;;;;;;5020309;28;20366;-63
2023/01/04 06:25:22;;;;;;;1.98;1.15;;;9.40;95.80;;;;;;5025805;28;20050;-61
2023/01/04 06:27:49;;;;;;;1.77;1.00;;;9.40;95.80;;;;;;5028568;28;20088;-60
2023/01/04 06:30:16;;;;;;;1.45;0.90;;;9.40;95.80;;;;;;5020356;28;20021;-59
2023/01/04 06:32:43;;;;;;;2.35;1.35;;;9.50;95.80;;;;;;5030368;28;20042;-61
2023/01/04 06:35:09;;;;;;;1.88;1.02;;;9.50;95.70;;;;;;5022120;28;20424;-58
2023/01/04 06:37:35;;;;;;;1.88;1.10;;;9.50;95.70;;;;;;5024080;28;20120;-57
2023/01/04 06:40:02;;;;;;;3.03;1.35;;;9.60;95.70;;;;;;5022157;28;20034;-60
2023/01/04 06:42:43;;;;;;;2.10;1.05;;;9.60;95.70;;;;;;5021464;28;20033;-57
2023/01/04 06:45:12;;;;;;;2.45;1.35;;;9.60;95.70;;;;;;5022482;28;20470;-61
2023/01/04 06:47:42;;;;;;;3.05;1.55;;;9.60;95.70;;;;;;5014989;28;20435;-66
2023/01/04 06:50:09;;;;;;;3.88;1.70;;;9.60;95.70;;;;;;5011082;28;20026;-66
2023/01/04 06:52:35;;;;;;;5.47;1.98;;;9.70;95.80;;;;;;5016320;28;20029;-64
2023/01/04 06:55:02;;;;;;;3.45;1.75;;;9.70;95.80;;;;;;5034563;28;20052;-61
2023/01/04 06:57:29;;;;;;;3.53;1.60;;;9.80;95.80;;;;;;5033257;28;20144;-61
2023/01/04 06:59:58;;;;;;;2.65;1.73;;;9.80;95.80;;;;;;5021867;28;20022;-64
2023/01/04 07:02:25;;;;;;;3.17;1.93;;;9.80;95.80;;;;;;5039997;28;20037;-65
2023/01/04 07:04:52;;;;;;;2.80;1.77;;;9.90;95.80;;;;;;5022999;28;20575;-66
2023/01/04 07:07:19;;;;;;;5.20;1.80;;;9.90;95.80;;;;;;5024507;28;20037;-66
2023/01/04 07:09:44;;;;;;;3.00;1.88;;;9.90;95.80;;;;;;5033836;28;20465;-66
2023/01/04 07:12:10;;;;;;;2.53;1.60;;;9.90;95.90;;;;;;5021914;28;20025;-65
2023/01/04 07:14:37;;;;;;;3.17;1.58;;;9.90;95.90;;;;;;5025104;28;20033;-66
2023/01/04 07:17:05;;;;;;;3.30;1.50;;;10.00;95.80;;;;;;5027952;28;20505;-66
2023/01/04 07:19:31;;;;;;;2.00;1.27;;;10.00;95.90;;;;;;5025324;28;20044;-66
2023/01/04 07:22:00;;;;;;;2.72;1.80;;;10.00;95.90;;;;;;5027169;28;20033;-66
2023/01/04 07:24:29;;;;;;;3.42;1.10;;;10.10;95.90;;;;;;5029699;28;20034;-66
2023/01/04 07:26:58;;;;;;;2.50;1.20;;;10.10;95.90;;;;;;5031637;28;20027;-65
2023/01/04 07:29:25;;;;;;;3.50;1.30;;;10.10;96.00;;;;;;5036278;28;20446;-65
2023/01/04 07:31:52;;;;;;;2.67;1.60;;;10.10;95.90;;;;;;5025758;28;20038;-65
2023/01/04 07:34:21;;;;;;;3.75;1.92;;;10.20;95.90;;;;;;5022859;28;20501;-65
2023/01/04 07:36:49;;;;;;;2.65;1.67;;;10.20;96.00;;;;;;5015504;28;20029;-63
2023/01/04 07:39:17;;;;;;;3.05;1.70;;;10.20;95.90;;;;;;5023711;28;20588;-63
2023/01/04 07:41:50;;;;;;;2.38;1.10;;;10.20;95.90;;;;;;5033668;28;20029;-65
2023/01/04 07:44:17;;;;;;;3.15;1.70;;;10.20;95.90;;;;;;5026069;28;20366;-65
2023/01/04 07:46:44;;;;;;;3.38;1.70;;;10.30;95.90;;;;;;5034058;28;20104;-65
2023/01/04 07:49:12;;;;;;;3.10;1.90;;;10.30;96.00;;;;;;5033756;28;20041;-66
2023/01/04 07:51:40;;;;;;;2.78;1.40;;;10.40;96.00;;;;;;5017134;28;20589;-64
2023/01/04 07:54:08;;;;;;;2.53;1.60;;;10.40;96.00;;;;;;5025066;28;20069;-64
2023/01/04 07:56:36;;;;;;;3.00;1.80;;;10.40;95.90;;;;;;5028231;28;20025;-64
2023/01/04 07:59:08;;;;;;;2.97;1.85;;;10.40;95.90;;;;;;5023322;28;20022;-64
2023/01/04 08:01:38;;;;;;;3.10;1.60;;;10.40;95.90;;;;;;5025695;28;20095;-63
2023/01/04 08:04:09;;;;;;;3.30;1.73;;;10.40;95.80;;;;;;5025631;28;20026;-61
2023/01/04 08:06:37;;;;;;;2.25;1.50;;;10.40;95.80;;;;;;5019748;28;20068;-59
2023/01/04 08:09:05;;;;;;;2.65;1.55;;;10.50;95.80;;;;;;5019874;28;20018;-61
2023/01/04 08:11:33;;;;;;;2.40;1.40;;;10.50;95.80;;;;;;5022256;28;20025;-64
2023/01/04 08:14:00;;;;;;;3.90;1.60;;;10.50;95.80;;;;;;5027715;28;20052;-64
2023/01/04 08:16:33;;;;;;;2.67;1.60;;;10.50;95.80;;;;;;5030804;28;20029;-63
2023/01/04 08:19:07;;;;;;;2.33;1.33;;;10.50;95.70;;;;;;5022717;28;20021;-63
2023/01/04 08:21:35;;;;;;;2.45;1.15;;;10.50;95.80;;;;;;5027013;28;20032;-63
2023/01/04 08:24:02;;;;;;;2.08;1.20;;;10.50;95.70;;;;;;5025192;28;20087;-61
2023/01/04 08:26:29;;;;;;;1.65;0.98;;;10.50;95.70;;;;;;5019323;28;20030;-64
2023/01/04 08:28:55;;;;;;;2.22;1.42;;;10.50;95.80;;;;;;5020423;28;20025;-65
2023/01/04 08:31:26;;;;;;;3.42;1.38;;;10.60;95.70;;;;;;5021984;28;20032;-64
2023/01/04 08:33:54;;;;;;;2.17;1.30;;;10.60;95.70;;;;;;5021339;28;20636;-63
2023/01/04 08:36:46;;;;;;;2.08;1.48;;;10.50;95.70;;;;;;5025439;28;20029;-63
2023/01/04 08:39:13;;;;;;;3.03;1.13;;;10.50;95.70;;;;;;5026938;28;20037;-65
2023/01/04 08:41:53;;;;;;;2.15;0.90;;;10.60;95.70;;;;;;5028468;28;20041;-64
2023/01/04 08:44:22;;;;;;;1.48;0.80;;;10.60;95.80;;;;;;5027739;28;20494;-64
2023/01/04 08:46:50;;;;;;;1.65;0.93;;;10.60;95.70;;;;;;5033165;28;20120;-62
2023/01/04 08:49:18;;;;;;;1.75;0.82;;;10.60;95.70;;;;;;5031295;28;20040;-62
2023/01/04 08:51:46;;;;;;;1.88;1.13;;;10.60;95.70;;;;;;5023759;28;20033;-63
2023/01/04 08:54:15;;;;;;;2.67;1.30;;;10.60;95.70;;;;;;5027758;28;20556;-64
2023/01/04 08:56:41;;;;;;;1.77;0.93;;;10.60;95.70;;;;;;5022996;28;20071;-63
2023/01/04 08:59:09;;;;;;;1.58;0.70;;;10.60;95.80;;;;;;5024374;28;20044;-62
2023/01/04 09:01:37;;;;;;;1.25;0.65;;;10.60;95.70;;;;;;5022475;28;20021;-62
2023/01/04 09:04:04;;;;;;;1.63;0.82;;;10.60;95.80;;;;;;5031429;28;20033;-61
2023/01/04 09:06:31;;;;;;;1.88;1.00;;;10.60;95.80;;;;;;5030450;28;20064;-62
2023/01/04 09:08:58;;;;;;;1.42;0.70;;;10.60;95.70;;;;;;5025290;28;20151;-63
2023/01/04 09:11:28;;;;;;;1.73;0.60;;;10.60;95.80;;;;;;5029096;28;20040;-62
2023/01/04 09:14:03;;;;;;;1.20;0.75;;;10.60;95.80;;;;;;5030119;28;20600;-62
2023/01/04 09:16:29;;;;;;;2.85;0.80;;;10.70;95.80;;;;;;5031343;28;20021;-63
2023/01/04 09:18:59;;;;;;;1.20;0.60;;;10.70;95.80;;;;;;5027151;28;20034;-62
2023/01/04 09:21:25;;;;;;;0.93;0.57;;;10.70;95.70;;;;;;5027518;28;20038;-59
2023/01/04 09:23:53;;;;;;;1.20;0.60;;;10.60;95.80;;;;;;5032531;28;20433;-62
2023/01/04 09:26:21;;;;;;;1.05;0.60;;;10.60;95.80;;;;;;5030518;28;20033;-62
2023/01/04 09:28:54;;;;;;;1.17;0.68;;;10.70;95.80;;;;;;5029892;28;20025;-62
2023/01/04 09:31:23;;;;;;;0.70;0.60;;;10.70;95.80;;;;;;5023712;28;20046;-61
2023/01/04 09:33:50;;;;;;;;;;;10.70;95.80;;;;;;5024321;28;20050;-61
2023/01/04 09:36:18;;;;;;;1.23;0.60;;;10.70;95.80;;;;;;5031043;28;20003;-61
2023/01/04 09:38:45;;;;;;;1.38;0.80;;;10.80;95.90;;;;;;5014732;28;20395;-62
2023/01/04 09:41:26;;;;;;;1.60;0.70;;;10.80;95.80;;;;;;5021723;28;20084;-61
2023/01/04 09:44:15;;;;;;;1.55;0.90;;;10.80;95.90;;;;;;5025735;28;20026;-61
2023/01/04 09:46:50;;;;;;;2.60;1.48;;;10.90;95.80;;;;;;5023150;28;20021;-61
2023/01/04 09:49:41;;;;;;;1.00;0.60;;;10.90;95.80;;;;;;5031980;28;20033;-61
2023/01/04 09:52:34;;;;;;;1.70;0.70;;;10.90;95.90;;;;;;5018428;28;20044;-60
2023/01/04 09:55:06;;;;;;;1.38;0.70;;;10.90;95.80;;;;;;5017780;28;20022;-59
2023/01/04 09:57:40;;;;;;;1.65;0.80;;;10.90;95.80;;;;;;5029540;28;20736;-59
2023/01/04 10:00:18;;;;;;;1.65;0.60;;;10.90;95.90;;;;;;5022724;28;20034;-57
2023/01/04 10:02:55;;;;;;;2.00;0.75;;;10.90;95.90;;;;;;5024728;28;20048;-60
2023/01/04 10:05:25;;;;;;;1.45;1.02;;;10.90;95.90;;;;;;5028720;28;20038;-61
2023/01/04 10:07:52;;;;;;;0.80;0.60;;;10.90;95.80;;;;;;5025294;28;20446;-61
2023/01/04 10:10:39;;;;;;;2.17;0.65;;;10.90;95.90;;;;;;5034991;28;20447;-62
2023/01/04 10:13:22;;;;;;;1.02;0.65;;;11.00;95.90;;;;;;5019873;28;20033;-63
2023/01/04 10:16:06;;;;;;;1.83;0.80;;;11.00;95.90;;;;;;5024790;28;20443;-61
2023/01/04 10:19:13;;;;;;;1.33;0.80;;;11.00;95.90;;;;;;5024730;28;20034;-64
2023/01/04 10:21:55;;;;;;;1.35;0.82;;;11.00;95.90;;;;;;5023038;28;20379;-62
2023/01/04 10:24:58;;;;;;;1.20;0.70;;;11.00;95.90;;;;;;5025543;28;20033;-63
2023/01/04 10:27:54;;;;;;;1.33;0.77;;;11.00;95.90;;;;;;5036334;28;20053;-64
2023/01/04 10:30:31;;;;;;;3.47;1.73;;;11.10;95.90;;;;;;5032075;28;20340;-65
2023/01/04 10:33:13;;;;;;;1.58;0.98;;;11.00;95.90;;;;;;5029671;28;20094;-64
2023/01/04 10:35:43;;;;;;;1.17;0.73;;;11.00;95.90;;;;;;5030657;28;20087;-62
2023/01/04 10:38:35;;;;;;;1.23;0.70;;;11.00;95.90;;;;;;5032781;28;20036;-59
2023/01/04 10:41:10;;;;;;;1.48;0.70;;;11.00;95.90;;;;;;5040790;28;20044;-59
2023/01/04 10:43:54;;;;;;;2.90;0.88;;;11.00;95.90;;;;;;5020416;28;20040;-59
2023/01/04 10:46:55;;;;;;;1.65;0.57;;;11.00;95.90;;;;;;5032382;28;20498;-53
2023/01/04 10:49:48;;;;;;;1.30;0.70;;;11.00;96.00;;;;;;5031027;28;20041;-51
2023/01/04 10:52:18;;;;;;;3.30;1.20;;;11.10;95.90;;;;;;5030135;28;20047;-51
2023/01/04 10:54:59;;;;;;;3.78;1.42;;;11.00;95.90;;;;;;5031775;28;20038;-55
2023/01/04 10:57:53;;;;;;;4.95;1.40;;;11.00;95.90;;;;;;5026438;28;20362;-52
2023/01/04 11:00:29;;;;;;;4.00;1.67;;;11.00;95.90;;;;;;5029443;28;20113;-48
2023/01/04 11:03:41;;;;;;;4.72;2.03;;;11.00;95.90;;;;;;5036773;28;20025;-49
2023/01/04 11:06:26;;;;;;;7.07;2.95;;;11.10;95.90;;;;;;5019548;28;20121;-50
2023/01/04 11:09:01;;;;;;;5.25;2.10;;;11.10;95.80;;;;;;5024700;28;20392;-51
2023/01/04 11:11:42;;;;;;;7.32;2.13;;;11.10;95.80;;;;;;5028805;28;20044;-48
2023/01/04 11:14:10;;;;;;;6.28;2.17;;;11.10;95.80;;;;;;5027156;28;20466;-48
2023/01/04 11:16:45;;;;;;;4.05;1.83;;;11.10;95.80;;;;;;5025994;28;20025;-48
2023/01/04 11:19:12;;;;;;;6.13;1.80;;;11.10;95.70;;;;;;5033665;28;20030;-50
2023/01/04 11:21:48;;;;;;;9.73;3.10;;;11.20;95.70;;;;;;5025043;28;20505;-47
2023/01/04 11:24:16;;;;;;;8.60;3.03;;;11.20;95.60;;;;;;5032245;28;20025;-48
2023/01/04 11:26:45;;;;;;;11.20;3.17;;;11.20;95.60;;;;;;5037928;28;20354;-50
2023/01/04 11:29:43;;;;;;;12.35;2.70;;;11.20;95.50;;;;;;5034486;28;20096;-46
2023/01/04 11:32:48;;;;;;;17.00;3.05;;;11.30;95.50;;;;;;5023520;28;20088;-47
2023/01/04 11:35:14;;;;;;;8.00;2.70;;;11.40;95.40;;;;;;5032634;28;20537;-48
2023/01/04 11:37:41;;;;;;;9.43;2.47;;;11.40;95.30;;;;;;5021471;28;20128;-46
2023/01/04 11:40:27;;;;;;;17.17;3.28;;;11.40;95.10;;;;;;5025232;28;20026;-49
2023/01/04 11:43:16;;;;;;;10.07;2.33;;;11.40;95.10;;;;;;5027090;28;20462;-47
2023/01/04 11:46:05;;;;;;;9.65;2.60;;;11.50;94.90;;;;;;5023607;28;20122;-44
2023/01/04 11:48:42;;;;;;;16.45;3.10;;;11.50;94.80;;;;;;5026955;28;20025;-44
2023/01/04 11:51:18;;;;;;;15.18;2.60;;;11.50;94.60;;;;;;5024289;28;20026;-45
2023/01/04 11:53:55;;;;;;;12.50;3.15;;;11.50;94.50;;;;;;5023900;28;20606;-47
2023/01/04 11:56:28;;;;;;;11.27;2.55;;;11.50;94.30;;;;;;5021079;28;20079;-50
2023/01/04 11:59:16;;;;;;;14.18;3.50;;;11.50;94.20;;;;;;5029037;28;20029;-44
2023/01/04 12:01:49;;;;;;;14.35;4.22;;;11.50;94.10;;;;;;5029700;28;20091;-46
2023/01/04 12:04:22;;;;;;;12.48;2.72;;;11.50;94.00;;;;;;5029522;28;20037;-45
2023/01/04 12:06:57;;;;;;;10.55;2.40;;;11.60;94.00;;;;;;5025449;28;20056;-49
2023/01/04 12:09:25;;;;;;;11.65;3.28;;;11.60;93.80;;;;;;5026965;28;20034;-47
2023/01/04 12:11:55;;;;;;;19.73;4.30;;;11.70;93.80;;;;;;5020169;28;20033;-45
2023/01/04 12:14:41;;;;;;;17.63;5.10;;;11.70;93.60;;;;;;5028529;28;20333;-46
2023/01/04 12:17:34;;;;;;;17.42;3.25;;;11.80;93.30;;;;;;5030327;28;20331;-47
2023/01/04 12:20:03;;;;;;;16.38;3.40;;;11.90;93.30;;;;;;5019823;28;20033;-45
2023/01/04 12:22:40;;;;;;;17.33;3.85;;;11.90;93.20;;;;;;5035471;28;20025;-47
2023/01/04 12:25:20;;;;;;;17.65;4.07;;;11.90;93.10;;;;;;5028242;28;20022;-45
2023/01/04 12:27:51;;;;;;;18.70;4.32;;;11.90;93.00;;;;;;5025614;28;20032;-47
2023/01/04 12:30:45;;;;;;;18.73;4.18;;;11.90;93.00;;;;;;5030873;28;20044;-46
2023/01/04 12:33:31;;;;;;;17.40;3.20;;;11.90;93.00;;;;;;5033744;28;20346;-45
2023/01/04 12:36:19;;;;;;;15.80;3.65;;;11.90;92.90;;;;;;5031073;28;20037;-46
2023/01/04 12:38:58;;;;;;;14.75;3.55;;;11.90;92.80;;;;;;5030350;28;20033;-46
2023/01/04 12:41:59;;;;;;;16.00;4.10;;;11.80;92.60;;;;;;5031182;28;20029;-48
2023/01/04 12:44:46;;;;;;;16.30;3.20;;;11.80;92.60;;;;;;5026571;28;20087;-49
2023/01/04 12:50:26;;;;;;;16.77;4.07;;;11.80;92.70;;;;;;5030185;28;20041;-47
2023/01/04 12:53:30;;;;;;;21.58;3.85;;;11.70;92.50;;;;;;5032183;28;20335;-44
2023/01/04 12:55:58;;;;;;;17.63;4.43;;;11.80;92.60;;;;;;5027578;28;20087;-44
2023/01/04 12:58:26;;;;;;;21.92;3.45;;;11.70;92.60;;;;;;5038519;28;20446;-45
2023/01/04 13:00:58;;;;;;;18.70;4.88;;;11.70;92.80;;;;;;5030938;28;20034;-49
2023/01/04 13:03:25;;;;;;;16.27;3.95;;;11.70;92.80;;;;;;5026428;28;20033;-46
2023/01/04 13:06:03;;;;;;;14.10;3.88;;;11.60;92.70;;;;;;5035739;28;20474;-46
2023/01/04 13:08:32;;;;;;;19.17;3.75;;;11.70;92.60;;;;;;5030462;28;20124;-46
2023/01/04 13:11:03;;;;;;;15.75;3.35;;;11.70;92.70;;;;;;5032428;28;20069;-50
2023/01/04 13:13:51;;;;;;;13.35;3.92;;;11.70;92.70;;;;;;5031354;28;20084;-50
2023/01/04 13:16:54;;;;;;;16.17;4.20;;;11.70;92.70;;;;;;5045729;28;20513;-48
2023/01/04 13:19:38;;;;;;;14.90;4.00;;;11.60;92.70;;;;;;5020975;28;20083;-45
2023/01/04 13:22:22;;;;;;;16.33;4.95;;;11.70;92.70;;;;;;5024282;28;20045;-46
2023/01/04 13:24:50;;;;;;;18.02;4.00;;;11.70;92.60;;;;;;5023939;28;20029;-49
2023/01/04 13:27:19;;;;;;;16.02;3.28;;;11.70;92.60;;;;;;5026209;28;20018;-47
2023/01/04 13:29:47;;;;;;;12.05;3.80;;;11.70;92.50;;;;;;5020369;28;20026;-45
2023/01/04 13:32:28;;;;;;;12.52;4.18;;;11.80;92.30;;;;;;5025329;28;20032;-46
2023/01/04 13:35:09;;;;;;;19.15;3.90;;;11.80;92.20;;;;;;5029268;28;20030;-48
2023/01/04 13:37:54;;;;;;;14.02;4.15;;;11.90;92.20;;;;;;5029808;28;20040;-48
2023/01/04 13:40:42;;;;;;;32.55;10.70;;;11.90;91.90;;;;;;5032400;28;20029;-46
2023/01/04 13:43:29;;;;;;;16.95;3.53;;;11.90;91.90;;;;;;5030382;28;20061;-47
2023/01/04 13:46:16;;;;;;;15.82;4.78;;;11.80;91.90;;;;;;5032141;28;20057;-44
2023/01/04 13:48:46;;;;;;;14.68;4.03;;;11.90;91.80;;;;;;5018118;28;20032;-47
2023/01/04 13:51:35;;;;;;;14.35;3.88;;;11.80;91.90;;;;;;5032068;28;20687;-48
2023/01/04 13:54:04;;;;;;;22.90;4.63;;;11.80;91.80;;;;;;5023211;28;20054;-49
2023/01/04 13:56:33;;;;;;;16.65;4.22;;;11.70;91.80;;;;;;5008569;28;20473;-47
2023/01/04 13:59:03;;;;;;;13.57;3.65;;;11.70;91.90;;;;;;5027465;28;20041;-46
2023/01/04 14:01:35;;;;;;;;;;;11.60;92.10;;;;;;5030879;28;20026;-46
2023/01/04 14:04:12;;;;;;;20.33;4.13;;;11.60;92.10;;;;;;5032457;28;19924;-47
2023/01/04 14:06:58;;;;;;;18.13;4.10;;;11.70;92.10;;;;;;5023407;28;20110;-48
2023/01/04 14:09:31;;;;;;;16.60;3.28;;;11.70;92.00;;;;;;5034376;28;20038;-47